Nearby METAR Reports

 

EGOS - RAF Shawbury, Shropshire, UK
Distance from station: NE 9mi, 14km
Updated: 24/09/2018 15:50
Few Clouds
Few Clouds
 Wind from NNW
Wind: NNW 9 mph , 15 km/h
Temperature: 14°C
Dew Point: 5°C
Humidity: 55%
Barometer: 1038 hPa
Clouds: Few Clouds
Visibility: 6 miles , 10 km
Cloud details: Few Clouds 1219 m
2018/09/24 14:50 EGOS 241450Z 34008KT 9999 FEW040 14/05 Q1038 BLU NOSIG
KNUQ - Moffett Nas/Mtn, California, USA
Distance from station: N 9mi, 14km
Updated: 24/09/2018 15:56
Clear
Clear
 Wind from calm
Wind: Calm
Temperature: 13°C
Dew Point: 11°C
Humidity: 88%
Barometer: 1011.9 hPa
Clouds: Clear
Visibility: 9 miles , 14 km
2018/09/24 14:56 KNUQ 241456Z 00000KT 9SM CLR 13/11 A2988 RMK AO2 SLP120 T01280106 53007 $
 
KPAO - Palo Alto, California, USA
Distance from station: NNW 14mi, 23km
Updated: 24/09/2018 15:47
Few Clouds
Few Clouds
 Wind from calm
Wind: Calm
Temperature: 11°C
Barometer: 1011.9 hPa
Clouds: Few Clouds
Visibility: 10 miles , 16 km
Cloud details: Few Clouds 914 m
2018/09/24 14:47 KPAO 241447Z 00000KT 10SM FEW030 11/ A2988
KRHV - San Jose/Reid, California, USA
Distance from station: ENE 12mi, 19km
Updated: 24/09/2018 15:47
Clear
Clear
 Wind from calm
Wind: Calm
Temperature: 13°C
Dew Point: 8°C
Humidity: 72%
Barometer: 1010.8 hPa
Clouds: Clear
Visibility: 10 miles , 16 km
2018/09/24 14:47 KRHV 241447Z 00000KT 10SM SKC 13/08 A2985
 
KOAK - Oakland, California, USA
Distance from station: NNW 31mi, 50km
Updated: 24/09/2018 15:53
Mist, Few clouds
Mist, Few clouds
 Wind from NNE
Wind: NNE 3 mph , 6 km/h
Temperature: 11°C
Dew Point: 10°C
Humidity: 94%
Barometer: 1011.9 hPa
Summary: Mist
Clouds: Few Clouds
Visibility: 6 miles , 10 km
Cloud details: Few Clouds 274 m
2018/09/24 14:53 KOAK 241453Z 02003KT 6SM BR FEW009 11/10 A2988 RMK AO2 SLP118 T01060100 53007
KSQL - San Carlos Airpo, California, USA
Distance from station: NW 21mi, 34km
Updated: 24/09/2018 15:47
Few Clouds
Few Clouds
 Wind from calm
Wind: Calm
Temperature: 12°C
Dew Point: 9°C
Humidity: 82%
Barometer: 1011.5 hPa
Clouds: Few Clouds
Visibility: 10 miles , 16 km
Cloud details: Few Clouds 274 m
Few Clouds 3048 m
2018/09/24 14:47 KSQL 241447Z 00000KT 10SM FEW009 FEW100 12/09 A2987
 
KSFO - San Francisco, California, USA
Distance from station: NW 30mi, 49km
Updated: 24/09/2018 15:56
Few Clouds
Few Clouds
 Wind from calm
Wind: Calm
Temperature: 12°C
Dew Point: 8°C
Humidity: 77%
Barometer: 1011.5 hPa
Clouds: Few Clouds
Visibility: 10 miles , 16 km
Cloud details: Few Clouds 244 m
Few Clouds 6096 m
2018/09/24 14:56 KSFO 241456Z 00000KT 10SM FEW008 FEW200 12/08 A2987 RMK AO2 SLP113 T01170083 53007
KE16 - San Martin, California, USA
Distance from station: ESE 27mi, 43km
Updated: 24/09/2018 16:10
Clear
Clear
 Wind from calm
Wind: Calm
Temperature: 10°C
Dew Point: 7°C
Humidity: 82%
Barometer: 1012.5 hPa
Clouds: Clear
Visibility: 9 miles , 14 km
2018/09/24 15:10 KE16 241510Z AUTO 00000KT 9SM CLR 10/07 A2990 RMK AO2
 
KWVI - Watsonville, California, USA
Distance from station: SSE 27mi, 44km
Updated: 24/09/2018 15:53
Fog, Overcast
Fog, Overcast
 Wind from ESE
Wind: ESE 5 mph , 7 km/h
Temperature: 10°C
Wind Chill: 9°C
Dew Point: 10°C
Humidity: 100%
Barometer: 1012.2 hPa
Summary: Fog
Clouds: Overcast
Visibility: 1/4 mile , 0.4 km
Cloud details: Overcast 61 m
2018/09/24 14:53 KWVI 241453Z AUTO 12004KT 1/4SM FG VV002 10/10 A2989 RMK AO2 SLP120 T01000100 53009
KHAF - Half Moon Bay, California, USA
Distance from station: WNW 31mi, 50km
Updated: 24/09/2018 16:15
Fog, Overcast
Fog, Overcast
 Wind from SE
Wind: SE 7 mph , 11 km/h
Temperature: 9°C
Wind Chill: 7°C
Dew Point: 9°C
Humidity: 100%
Barometer: 1012.2 hPa
Summary: Fog
Clouds: Overcast
Visibility: less than 1/4 mile , 0.4 km
Cloud details: Overcast 61 m
2018/09/24 15:15 KHAF 241515Z AUTO 14006KT M1/4SM FG OVC002 09/09 A2989 RMK AO2
 
KHWD - Hayward, California, USA
Distance from station: N 28mi, 44km
Updated: 24/09/2018 15:54
Clear
Clear
 Wind from ENE
Wind: ENE 3 mph , 6 km/h
Temperature: 12°C
Dew Point: 7°C
Humidity: 72%
Barometer: 1011.5 hPa
Clouds: Clear
Visibility: 10 miles , 16 km
2018/09/24 14:54 KHWD 241454Z 06003KT 10SM CLR 12/07 A2987 RMK AO2 SLP124 T01220067 53007
KLVK - Livermore, California, USA
Distance from station: NNE 31mi, 51km
Updated: 24/09/2018 15:53
Clear
Clear
 Wind from calm
Wind: Calm
Temperature: 12°C
Dew Point: 1°C
Humidity: 47%
Barometer: 1011.5 hPa
Clouds: Clear
Visibility: 10 miles , 16 km
2018/09/24 14:53 KLVK 241453Z 00000KT 10SM CLR 12/01 A2987 RMK AO2 SLP111 T01170011 53008